Texarkana, TX (75503)

3:07 AM CST on December 28, 2014 (GMT -0600)
Texas High School - Texarkana | Change Station
CLOSE
Current Station
Personal Weather Station
Location: Texarkana, TX
Elevation: 341 ft
Nearby Weather Stations

Elev 341 ft 33.45 °N, 94.07 °W | Updated 7 minutes ago

Overcast
Overcast
38.9 °F
Feels Like 34 °F
N
7.0
Wind Variable Wind from North
Gusts 9.0 mph

Today
High -- | Low -- °F
--% Chance of Precip.
Yesterday
High -- | Low -- °F
Precip. -- in
7:19 AM 5:16 PM
Waxing Crescent, 45% visible
Pressure 30.18 in
Visibility 10.0 miles
Clouds Few 700 ft
Overcast 1300 ft
Windchill 34 °F
Dew Point 37 °F
Humidity 92%
Rainfall 0.00 in
Snow Depth Not available.
UV 0 out of 12
Pollen .50 out of 12
Air Quality Not available.
Flu Activity Not available.
SPECI KTXK 280900Z AUTO 36005KT 10SM FEW007 OVC013 03/02 A3018 RMK AO2 PRESFR T00330022

More Conditions Fewer Conditions

Pressure 30.18 in
Visibility 10.0 miles
Clouds Few 700 ft
Overcast 1300 ft
Windchill 34 °F
Dew Point 37 °F
Humidity 92%
Rainfall 0.00 in
Snow Depth Not available.
UV 0 out of 12
Pollen .50 out of 12
Air Quality Not available.
Flu Activity Not available.
SPECI KTXK 280900Z AUTO 36005KT 10SM FEW007 OVC013 03/02 A3018 RMK AO2 PRESFR T00330022

More Conditions Fewer Conditions

10-Day Weather Forecast

Almanac

Astronomy

Dec. 28, 2014 Rise Set
Actual Time
Civil Twilight
Nautical Twilight
Astronomical Twilight
Moon
Length of Visible Light
Length of Day
Tomorrow will be .
, % of the Moon is Illuminated

Today's Extremes

State Highs State Lows

Community

WunderPhotos

Upload Photos

1,781,210 photos uploaded!

WunderBlogs® & News

Nearby

Air Quality

  Air Quality AQ Index Pollutant
Not available.

Snow Depth

Station Depth Elevation

Earthquake Activity

City Distance Mag. Time & Date
Minimum magnitude displayed is 2.5.

Coastal Water Temperatures

Place Temperature

Nearby Weather Stations